Time;durP1;ratioP1;P1;durP2;ratioP2;P2;SDS_P1;SDS_P2;PMS_P1;PMS_P2;Temp;Humidity;BMP_temperature;BMP_pressure;BME280_temperature;BME280_humidity;BME280_pressure;Samples;Min_cycle;Max_cycle;Signal;HPM_P1;HPM_P2
2023/01/13 00:03:22;;;;;;;2.27;0.80;;;10.90;1.00;;;;;;4874169;29;20901;-88
2023/01/13 00:06:10;;;;;;;1.37;0.80;;;10.90;1.00;;;;;;4872893;29;20554;-88
2023/01/13 00:08:51;;;;;;;1.70;0.90;;;10.80;1.00;;;;;;4872868;29;20435;-88
2023/01/13 00:11:28;;;;;;;;;;;;;;;;;;;;;
2023/01/13 00:14:47;;;;;;;1.30;0.73;;;10.70;1.00;;;;;;4870977;29;20450;-88
2023/01/13 00:17:23;;;;;;;;;;;;;;;;;;;;;
2023/01/13 00:22:37;;;;;;;2.70;0.70;;;10.60;1.00;;;;;;4870561;29;20984;-88
2023/01/13 00:25:05;;;;;;;2.80;1.00;;;10.60;1.00;;;;;;4857959;29;20508;-89
2023/01/13 00:28:10;;;;;;;;;;;;;;;;;;;;;
2023/01/13 00:30:37;;;;;;;1.07;0.60;;;10.70;1.00;;;;;;4871673;29;21023;-88
2023/01/13 00:36:10;;;;;;;1.20;0.70;;;10.70;1.00;;;;;;4858087;29;20443;-87
2023/01/13 00:38:57;;;;;;;1.77;0.60;;;10.80;1.00;;;;;;4876248;29;20802;-87
2023/01/13 00:43:21;;;;;;;1.53;0.60;;;10.80;1.00;;;;;;4872406;29;20440;-88
2023/01/13 00:45:02;;;;;;;1.67;0.60;;;10.80;1.00;;;;;;4876106;29;20535;-87
2023/01/13 00:47:37;;;;;;;2.03;0.83;;;10.80;1.00;;;;;;4851615;29;20452;-87
2023/01/13 00:50:27;;;;;;;2.60;0.63;;;10.80;1.00;;;;;;4879224;29;20478;-87
2023/01/13 00:53:11;;;;;;;6.43;0.90;;;10.80;1.00;;;;;;4876681;29;20489;-88
2023/01/13 00:55:39;;;;;;;2.90;1.10;;;10.80;1.00;;;;;;4872569;29;20475;-88
2023/01/13 00:58:04;;;;;;;2.60;0.67;;;10.80;1.00;;;;;;4878826;29;20447;-87
2023/01/13 01:00:48;;;;;;;1.30;0.90;;;10.80;1.00;;;;;;4861806;29;20471;-87
2023/01/13 01:03:16;;;;;;;1.70;0.93;;;10.80;1.00;;;;;;4862170;29;20224;-88
2023/01/13 01:06:08;;;;;;;6.47;0.90;;;10.80;1.00;;;;;;4875249;29;20455;-88
2023/01/13 01:08:34;;;;;;;3.00;0.80;;;10.80;1.00;;;;;;4874171;29;20452;-88
2023/01/13 01:11:21;;;;;;;4.17;0.90;;;10.80;99.90;;;;;;4875294;29;20483;-86
2023/01/13 01:13:51;;;;;;;4.70;1.10;;;10.80;99.90;;;;;;4885050;29;20502;-88
2023/01/13 01:16:29;;;;;;;;;;;;;;;;;;;;;
2023/01/13 01:18:57;;;;;;;5.07;2.27;;;10.80;99.90;;;;;;4878474;29;20457;-88
2023/01/13 01:21:27;;;;;;;8.47;1.73;;;10.80;99.90;;;;;;4872092;29;20444;-88
2023/01/13 01:24:00;;;;;;;1.87;0.77;;;10.80;99.90;;;;;;4859038;29;20440;-88
2023/01/13 01:26:55;;;;;;;3.30;1.10;;;10.70;1.00;;;;;;4876693;29;20496;-88
2023/01/13 01:29:29;;;;;;;4.83;1.30;;;10.60;99.90;;;;;;4876743;29;20562;-88
2023/01/13 01:32:05;;;;;;;3.00;1.00;;;10.60;94.30;;;;;;4876917;29;20439;-87
2023/01/13 01:34:39;;;;;;;6.63;1.00;;;10.60;1.00;;;;;;4876773;29;20439;-88
2023/01/13 01:37:25;;;;;;;2.53;1.10;;;10.50;99.90;;;;;;4876845;29;20444;-88
2023/01/13 01:39:50;;;;;;;6.93;0.97;;;10.40;1.00;;;;;;4862489;29;20464;-88
2023/01/13 01:45:37;;;;;;;3.97;1.00;;;10.30;1.00;;;;;;4877472;29;20206;-88
2023/01/13 01:48:17;;;;;;;;;;;;;;;;;;;;;
2023/01/13 01:50:43;;;;;;;2.03;0.70;;;10.20;4.90;;;;;;4868513;29;20478;-87
2023/01/13 01:53:34;;;;;;;1.77;0.80;;;10.20;1.00;;;;;;4877309;29;21096;-87
2023/01/13 01:56:09;;;;;;;2.10;0.70;;;10.10;99.90;;;;;;4875788;29;20444;-86
2023/01/13 01:58:50;;;;;;;3.07;0.70;;;10.10;99.90;;;;;;4871952;29;20443;-88
2023/01/13 02:01:25;;;;;;;2.70;1.17;;;10.00;1.00;;;;;;4872211;29;20444;-88
2023/01/13 02:04:04;;;;;;;3.87;0.93;;;9.90;1.00;;;;;;4876524;29;20448;-88
2023/01/13 02:06:32;;;;;;;4.20;0.70;;;9.80;1.00;;;;;;4876670;29;20448;-88
2023/01/13 02:09:06;;;;;;;2.33;1.10;;;9.80;1.00;;;;;;4875660;29;20558;-88
2023/01/13 02:15:04;;;;;;;8.67;1.10;;;9.70;1.00;;;;;;4884538;29;20950;-86
2023/01/13 02:18:06;;;;;;;3.03;1.03;;;9.70;99.90;;;;;;4851139;29;20460;-87
2023/01/13 02:21:10;;;;;;;3.97;1.00;;;9.70;93.20;;;;;;4856022;29;20463;-88
2023/01/13 02:27:14;;;;;;;2.93;1.83;;;9.60;99.90;;;;;;4877207;29;20443;-87
2023/01/13 02:33:56;;;;;;;;;;;;;;;;;;;;;
2023/01/13 02:36:43;;;;;;;3.83;1.30;;;9.40;1.00;;;;;;4871230;29;20447;-88
2023/01/13 02:39:21;;;;;;;7.90;1.33;;;9.40;99.90;;;;;;4867517;29;20464;-88
2023/01/13 02:49:02;;;;;;;2.90;1.30;;;9.20;99.90;;;;;;4849132;29;20436;-87
2023/01/13 02:54:25;;;;;;;3.13;1.30;;;9.20;1.00;;;;;;4874422;29;20420;-88
2023/01/13 02:57:19;;;;;;;4.43;1.00;;;9.10;39.40;;;;;;4872596;29;20875;-87
2023/01/13 02:59:56;;;;;;;8.43;1.13;;;9.10;99.90;;;;;;4859520;29;20211;-88
2023/01/13 03:02:23;;;;;;;9.47;1.57;;;9.10;99.90;;;;;;4868210;29;20451;-88
2023/01/13 03:06:08;;;;;;;5.00;2.20;;;9.10;1.00;;;;;;4875577;29;20489;-88
2023/01/13 03:08:58;;;;;;;6.43;1.67;;;9.10;1.00;;;;;;4827839;29;20452;-87
2023/01/13 03:11:55;;;;;;;7.67;1.20;;;9.00;12.10;;;;;;4874826;29;20199;-88
2023/01/13 03:14:45;;;;;;;7.78;1.85;;;9.00;1.00;;;;;;4869433;29;20444;-88
2023/01/13 03:18:08;;;;;;;7.07;1.40;;;9.00;99.90;;;;;;4870447;29;20692;-88
2023/01/13 03:21:00;;;;;;;7.33;1.50;;;9.00;99.90;;;;;;4873574;29;20594;-88
2023/01/13 03:27:03;;;;;;;10.13;1.80;;;8.90;1.00;;;;;;4869840;29;20440;-88
2023/01/13 03:29:42;;;;;;;9.83;1.83;;;8.90;1.00;;;;;;4847034;29;20483;-88
2023/01/13 03:32:28;;;;;;;9.90;2.40;;;8.90;1.00;;;;;;4876240;29;20976;-88
2023/01/13 03:35:01;;;;;;;12.80;2.17;;;8.90;1.00;;;;;;4873411;29;20440;-88
2023/01/13 03:37:37;;;;;;;5.50;2.03;;;8.90;1.00;;;;;;4859766;29;20475;-88
2023/01/13 03:40:13;;;;;;;8.13;1.40;;;8.80;99.90;;;;;;4874061;29;20591;-88
2023/01/13 03:44:20;;;;;;;6.07;1.63;;;8.80;86.00;;;;;;4875584;29;20561;-88
2023/01/13 03:45:30;;;;;;;6.93;1.70;;;8.80;65.90;;;;;;4867824;29;20444;-88
2023/01/13 03:48:08;;;;;;;9.20;2.30;;;8.80;99.90;;;;;;4858010;29;20500;-88
2023/01/13 03:50:55;;;;;;;3.23;1.43;;;8.70;99.90;;;;;;4873377;29;20495;-88
2023/01/13 03:53:41;;;;;;;8.40;1.80;;;8.70;99.90;;;;;;4868864;29;20967;-88
2023/01/13 03:56:18;;;;;;;10.32;2.55;;;8.70;99.90;;;;;;4874367;29;20192;-87
2023/01/13 03:58:52;;;;;;;6.43;1.77;;;8.70;99.90;;;;;;4858932;29;20747;-88
2023/01/13 04:01:57;;;;;;;10.90;2.10;;;8.70;99.90;;;;;;4871858;29;20964;-88
2023/01/13 04:04:54;;;;;;;14.63;2.30;;;8.60;99.90;;;;;;4848704;29;20448;-88
2023/01/13 04:07:30;;;;;;;4.03;1.43;;;8.60;99.90;;;;;;4873188;29;20440;-87
2023/01/13 04:10:01;;;;;;;12.50;2.20;;;8.60;1.00;;;;;;4874515;29;20480;-88
2023/01/13 04:15:22;;;;;;;6.53;1.60;;;8.60;1.00;;;;;;4876193;29;20443;-88
2023/01/13 04:17:48;;;;;;;8.83;2.63;;;8.60;1.00;;;;;;4872129;29;20183;-88
2023/01/13 04:20:25;;;;;;;8.50;1.90;;;8.60;1.00;;;;;;4858557;29;20554;-88
2023/01/13 04:22:50;;;;;;;7.97;2.38;;;8.60;1.00;;;;;;4873653;29;20448;-88
2023/01/13 04:25:37;;;;;;;7.90;1.60;;;8.60;1.00;;;;;;4859796;29;20814;-88
2023/01/13 04:28:03;;;;;;;10.33;2.83;;;8.60;1.00;;;;;;4870430;29;20248;-87
2023/01/13 04:30:40;;;;;;;8.77;1.80;;;8.50;8.40;;;;;;4875669;29;20551;-87
2023/01/13 04:33:12;;;;;;;6.57;2.35;;;8.50;18.90;;;;;;4867848;29;20444;-87
2023/01/13 04:35:38;;;;;;;9.35;2.88;;;8.50;1.00;;;;;;4854624;29;20192;-88
2023/01/13 04:38:10;;;;;;;13.60;3.23;;;8.60;1.00;;;;;;4858785;29;20194;-88
2023/01/13 04:40:45;;;;;;;14.60;2.25;;;8.60;38.00;;;;;;4873357;29;20522;-88
2023/01/13 04:43:31;;;;;;;23.20;4.00;;;8.70;1.00;;;;;;4874339;29;20332;-88
2023/01/13 04:46:16;;;;;;;9.47;2.60;;;8.80;1.00;;;;;;4874550;29;20447;-88
2023/01/13 04:48:42;;;;;;;23.83;3.53;;;8.80;1.00;;;;;;4872371;29;20475;-87
2023/01/13 04:51:08;;;;;;;9.90;2.07;;;8.80;1.00;;;;;;4872858;29;20479;-87
2023/01/13 04:53:33;;;;;;;13.20;2.20;;;8.90;1.00;;;;;;4859010;29;20188;-88
2023/01/13 04:56:12;;;;;;;9.00;2.37;;;8.90;99.90;;;;;;4874385;29;20443;-86
2023/01/13 04:58:38;;;;;;;9.63;2.80;;;8.90;99.90;;;;;;4873735;29;20184;-88
2023/01/13 05:01:23;;;;;;;7.50;2.47;;;9.00;71.10;;;;;;4874313;29;20751;-88
2023/01/13 05:03:58;;;;;;;16.80;2.30;;;8.90;9.50;;;;;;4872032;29;20261;-87
2023/01/13 05:06:42;;;;;;;10.03;1.83;;;8.90;32.80;;;;;;4874669;29;20477;-88
2023/01/13 05:09:15;;;;;;;10.33;2.23;;;8.80;99.90;;;;;;4868417;29;21240;-88
2023/01/13 05:17:22;;;;;;;6.97;1.85;;;8.80;55.40;;;;;;4876164;29;20460;-88
2023/01/13 05:20:03;;;;;;;10.32;2.00;;;8.70;99.90;;;;;;4876946;29;20211;-87
2023/01/13 05:25:25;;;;;;;10.20;2.47;;;8.70;99.90;;;;;;4876108;29;20451;-88
2023/01/13 05:28:18;;;;;;;15.35;2.58;;;8.70;99.90;;;;;;4878054;29;21002;-88
2023/01/13 05:30:45;;;;;;;6.65;2.00;;;8.70;1.00;;;;;;4874380;29;20264;-88
2023/01/13 05:33:19;;;;;;;9.32;1.90;;;8.70;1.00;;;;;;4877973;29;20206;-87
2023/01/13 05:35:48;;;;;;;13.75;4.40;;;8.70;1.00;;;;;;4878828;29;20256;-88
2023/01/13 05:38:16;;;;;;;9.82;2.80;;;8.70;99.90;;;;;;4876758;29;20183;-87
2023/01/13 05:43:26;;;;;;;13.25;2.50;;;8.70;99.90;;;;;;4872850;29;20202;-87
2023/01/13 05:45:56;;;;;;;10.27;2.10;;;8.60;99.90;;;;;;4877244;29;20202;-87
2023/01/13 05:48:31;;;;;;;9.50;1.97;;;8.70;1.00;;;;;;4877588;29;20675;-88
2023/01/13 05:50:57;;;;;;;8.70;1.98;;;8.60;1.00;;;;;;4875971;29;20542;-88
2023/01/13 05:53:28;;;;;;;7.97;1.93;;;8.60;1.00;;;;;;4875415;29;20588;-87
2023/01/13 05:55:54;;;;;;;6.50;2.43;;;8.60;99.90;;;;;;4876993;29;20471;-88
2023/01/13 05:58:22;;;;;;;12.07;3.83;;;8.60;99.90;;;;;;4861401;29;20436;-88
2023/01/13 06:00:50;;;;;;;8.32;1.95;;;8.70;99.90;;;;;;4873761;29;20485;-87
2023/01/13 06:06:51;;;;;;;5.20;2.33;;;8.80;99.90;;;;;;4877236;29;20511;-87
2023/01/13 06:09:21;;;;;;;10.13;1.77;;;8.80;1.00;;;;;;4874095;29;20543;-87
2023/01/13 06:12:05;;;;;;;10.30;2.20;;;8.90;1.00;;;;;;4860840;29;21331;-87
2023/01/13 06:14:39;;;;;;;8.43;1.90;;;8.90;1.00;;;;;;4876714;29;20487;-87
2023/01/13 06:17:12;;;;;;;10.33;2.37;;;8.90;1.00;;;;;;4872579;29;20447;-87
2023/01/13 06:19:38;;;;;;;5.82;1.65;;;8.90;1.00;;;;;;4872496;29;20532;-88
2023/01/13 06:22:14;;;;;;;10.47;2.47;;;8.80;1.20;;;;;;4875454;29;20252;-88
2023/01/13 06:24:40;;;;;;;8.30;2.07;;;8.80;99.90;;;;;;4876235;29;20447;-88
2023/01/13 06:27:07;;;;;;;8.30;1.50;;;8.80;99.90;;;;;;4877861;29;20513;-87
2023/01/13 06:29:36;;;;;;;5.67;1.63;;;8.80;99.90;;;;;;4877257;29;20224;-86
2023/01/13 06:32:05;;;;;;;4.40;2.33;;;8.70;99.90;;;;;;4875223;29;20451;-88
2023/01/13 06:34:41;;;;;;;7.18;1.70;;;8.70;99.90;;;;;;4875008;29;20448;-87
2023/01/13 06:37:18;;;;;;;6.07;1.83;;;8.70;99.90;;;;;;4874070;29;20211;-88
2023/01/13 06:39:44;;;;;;;9.17;2.20;;;8.70;99.90;;;;;;4874326;29;20464;-88
2023/01/13 06:44:55;;;;;;;7.30;1.60;;;8.60;99.90;;;;;;4876666;29;20511;-88
2023/01/13 06:47:21;;;;;;;6.23;1.93;;;8.60;99.90;;;;;;4860931;29;20615;-88
2023/01/13 06:49:47;;;;;;;10.93;1.70;;;8.60;99.90;;;;;;4874374;29;20276;-88
2023/01/13 06:52:12;;;;;;;7.90;2.47;;;8.60;1.00;;;;;;4871184;29;20815;-88
2023/01/13 06:54:38;;;;;;;5.50;1.53;;;8.60;99.90;;;;;;4875815;29;20456;-87
2023/01/13 06:57:03;;;;;;;6.17;1.77;;;8.60;52.70;;;;;;4858823;29;20204;-88
2023/01/13 06:59:29;;;;;;;16.30;2.43;;;8.60;1.00;;;;;;4877056;29;20215;-87
2023/01/13 07:01:55;;;;;;;9.60;1.47;;;8.60;1.00;;;;;;4875622;29;20203;-86
2023/01/13 07:04:21;;;;;;;4.87;1.90;;;8.60;99.90;;;;;;4876600;29;20546;-87
2023/01/13 07:07:07;;;;;;;11.57;2.60;;;8.60;1.00;;;;;;4855966;29;20207;-87
2023/01/13 07:09:33;;;;;;;7.68;1.58;;;8.60;1.00;;;;;;4854703;29;20219;-87
2023/01/13 07:11:58;;;;;;;4.93;1.37;;;8.60;1.00;;;;;;4875980;29;20251;-89
2023/01/13 07:17:08;;;;;;;8.63;1.40;;;8.50;1.00;;;;;;4872687;29;20198;-88
2023/01/13 07:19:33;;;;;;;10.43;1.70;;;8.50;58.30;;;;;;4870693;29;20456;-89
2023/01/13 07:22:02;;;;;;;2.90;1.07;;;8.50;99.90;;;;;;4874605;29;20195;-87
2023/01/13 07:24:28;;;;;;;8.57;1.95;;;8.50;99.90;;;;;;4874403;29;20187;-88
2023/01/13 07:27:03;;;;;;;5.53;1.63;;;8.50;99.90;;;;;;4874042;29;20206;-87
2023/01/13 07:29:50;;;;;;;6.30;1.30;;;8.40;1.00;;;;;;4858549;29;20316;-87
2023/01/13 07:33:07;;;;;;;4.90;1.50;;;8.50;1.00;;;;;;4873315;29;20831;-88
2023/01/13 07:35:35;;;;;;;7.10;1.40;;;8.50;1.00;;;;;;4858202;29;20526;-88
2023/01/13 07:38:01;;;;;;;3.67;1.00;;;8.50;99.90;;;;;;4875384;29;20274;-88
2023/01/13 07:44:03;;;;;;;;;;;;;;;;;;;;;
2023/01/13 07:46:30;;;;;;;4.97;1.00;;;8.50;99.90;;;;;;4877082;29;20450;-88
2023/01/13 07:49:16;;;;;;;5.65;2.15;;;8.50;99.90;;;;;;4875358;29;20511;-88
2023/01/13 07:51:49;;;;;;;3.67;1.40;;;8.50;1.00;;;;;;4875758;29;20191;-88
2023/01/13 07:54:49;;;;;;;4.60;1.50;;;8.60;1.00;;;;;;4877880;29;20428;-89
2023/01/13 08:07:57;;;;;;;5.10;2.17;;;9.10;99.90;;;;;;1210010;23;20896;-89
2023/01/13 08:10:28;;;;;;;4.70;1.87;;;9.40;1.00;;;;;;4881285;29;20482;-88
2023/01/13 08:13:36;;;;;;;7.57;2.27;;;9.70;99.90;;;;;;4881120;29;20963;-89
2023/01/13 08:16:17;;;;;;;7.37;1.80;;;10.00;1.00;;;;;;4852307;29;20453;-88
2023/01/13 08:25:20;;;;;;;12.03;2.27;;;10.60;1.00;;;;;;4890423;29;20435;-88
2023/01/13 08:28:00;;;;;;;16.67;2.83;;;10.80;1.00;;;;;;4889862;29;20522;-88
2023/01/13 08:40:19;;;;;;;14.73;2.93;;;11.20;99.90;;;;;;4835126;29;20505;-88
2023/01/13 08:45:41;;;;;;;19.10;3.37;;;10.90;99.90;;;;;;4838505;29;20434;-85
2023/01/13 08:57:48;;;;;;;9.37;3.27;;;13.50;1.00;;;;;;4909267;29;20495;-88
2023/01/13 09:00:15;;;;;;;13.83;3.30;;;12.90;1.00;;;;;;4895120;29;20474;-89
2023/01/13 09:02:41;;;;;;;9.17;2.40;;;12.50;1.00;;;;;;4875562;29;20980;-86
2023/01/13 09:05:11;;;;;;;9.10;2.63;;;12.20;1.00;;;;;;4880588;29;20447;-87
2023/01/13 09:07:37;;;;;;;14.00;3.17;;;12.10;1.00;;;;;;4880576;29;20445;-86
2023/01/13 09:10:48;;;;;;;10.07;2.90;;;12.30;1.00;;;;;;4886325;29;20470;-86
2023/01/13 09:13:19;;;;;;;13.10;3.33;;;12.70;1.00;;;;;;4894393;29;20447;-85
2023/01/13 09:15:55;;;;;;;11.53;2.53;;;13.10;1.00;;;;;;4894105;29;20492;-86
2023/01/13 09:18:26;;;;;;;14.77;2.97;;;13.30;1.00;;;;;;4897135;29;20508;-87
2023/01/13 09:20:52;;;;;;;10.97;3.80;;;13.30;99.90;;;;;;4891520;29;20474;-86
2023/01/13 09:23:18;;;;;;;10.80;2.67;;;13.10;99.90;;;;;;4894648;29;20447;-86
2023/01/13 09:28:42;;;;;;;10.97;2.53;;;12.60;99.90;;;;;;4876278;29;20632;-88
2023/01/13 09:31:19;;;;;;;14.03;2.93;;;12.40;99.90;;;;;;4877869;29;20440;-86
2023/01/13 09:36:59;;;;;;;10.97;2.73;;;11.80;1.00;;;;;;4887704;29;20438;-87
2023/01/13 09:39:39;;;;;;;12.73;3.63;;;11.70;1.00;;;;;;4877611;29;20503;-87
2023/01/13 09:45:35;;;;;;;14.00;2.90;;;12.10;1.00;;;;;;4893024;29;20816;-86
2023/01/13 09:48:04;;;;;;;10.63;2.27;;;12.50;1.00;;;;;;4879507;29;20451;-86
2023/01/13 09:50:46;;;;;;;16.50;3.40;;;12.60;1.00;;;;;;4901392;23;21018;-87
2023/01/13 09:53:40;;;;;;;12.93;2.23;;;12.50;1.00;;;;;;4874357;29;20440;-87
2023/01/13 09:56:09;;;;;;;7.80;2.97;;;12.40;1.00;;;;;;4878085;29;21041;-87
2023/01/13 09:58:38;;;;;;;16.73;3.07;;;12.30;1.00;;;;;;4875796;29;20825;-86
2023/01/13 10:02:02;;;;;;;20.43;3.77;;;12.20;1.00;;;;;;4876843;29;20559;-88
2023/01/13 10:05:04;;;;;;;10.93;2.80;;;12.20;1.00;;;;;;4862378;29;20468;-86
2023/01/13 10:08:08;;;;;;;14.20;3.20;;;12.30;1.00;;;;;;4871742;29;20440;-88
2023/01/13 10:10:45;;;;;;;13.40;2.90;;;12.30;99.90;;;;;;4857470;29;20543;-86
2023/01/13 10:13:40;;;;;;;;;;;;;;;;;;;;;
2023/01/13 10:16:41;;;;;;;15.30;2.90;;;12.20;1.00;;;;;;4879761;29;20454;-87
2023/01/13 10:19:32;;;;;;;21.50;3.20;;;12.20;99.90;;;;;;4872326;29;21005;-87
2023/01/13 10:25:36;;;;;;;14.13;2.60;;;12.00;99.90;;;;;;4874043;29;21089;-87
2023/01/13 10:28:14;;;;;;;11.20;3.30;;;12.00;99.90;;;;;;4860757;29;20531;-89
2023/01/13 10:30:47;;;;;;;18.07;3.43;;;11.90;99.90;;;;;;4874846;29;20491;-87
2023/01/13 10:33:34;;;;;;;15.83;2.73;;;11.90;99.90;;;;;;4859413;29;20460;-90
2023/01/13 10:36:27;;;;;;;10.67;3.20;;;11.90;1.00;;;;;;4855190;29;20455;-88
2023/01/13 10:39:37;;;;;;;17.50;2.73;;;12.00;1.00;;;;;;4855085;29;20453;-86
2023/01/13 10:42:22;;;;;;;16.60;3.13;;;12.10;1.00;;;;;;4861701;29;20456;-87
2023/01/13 10:44:56;;;;;;;13.40;3.57;;;12.10;1.00;;;;;;4864442;29;20453;-87
2023/01/13 10:47:51;;;;;;;16.13;3.60;;;12.20;1.00;;;;;;4877307;29;20878;-87
2023/01/13 10:50:30;;;;;;;20.77;3.43;;;12.20;99.90;;;;;;4876129;29;20468;-86
2023/01/13 10:53:17;;;;;;;14.00;2.63;;;12.30;99.90;;;;;;4861532;29;20958;-86
2023/01/13 10:56:13;;;;;;;12.73;3.63;;;12.40;99.90;;;;;;4868903;29;20449;-87
2023/01/13 10:59:15;;;;;;;17.23;3.60;;;12.50;99.90;;;;;;4859351;29;20987;-87
2023/01/13 11:02:04;;;;;;;10.70;2.70;;;12.40;99.90;;;;;;4864567;29;20452;-87
2023/01/13 11:05:01;;;;;;;21.77;3.50;;;12.20;99.90;;;;;;4861285;29;20434;-86
2023/01/13 11:07:56;;;;;;;16.23;3.10;;;12.10;99.90;;;;;;4863010;29;20853;-86
2023/01/13 11:10:29;;;;;;;12.53;2.70;;;11.90;99.90;;;;;;4896200;29;20462;-88
2023/01/13 11:13:22;;;;;;;10.90;2.43;;;11.80;99.90;;;;;;4902988;29;20428;-86
2023/01/13 11:16:15;;;;;;;16.63;3.20;;;11.80;99.90;;;;;;4867072;29;20453;-87
2023/01/13 11:19:11;;;;;;;12.50;3.57;;;11.70;99.90;;;;;;4861541;29;20495;-86
2023/01/13 11:22:05;;;;;;;7.67;2.27;;;11.70;99.90;;;;;;4870301;29;20443;-85
2023/01/13 11:25:00;;;;;;;13.30;2.63;;;11.60;99.90;;;;;;4861512;29;20433;-86
2023/01/13 11:27:57;;;;;;;9.73;2.90;;;11.40;99.90;;;;;;4857091;29;20415;-86
2023/01/13 11:33:25;;;;;;;11.87;2.13;;;11.30;99.90;;;;;;4877559;29;20496;-86
2023/01/13 11:36:23;;;;;;;13.63;3.40;;;11.20;99.90;;;;;;4875508;29;20495;-84
2023/01/13 11:42:33;;;;;;;18.80;6.27;;;11.60;99.90;;;;;;4855326;29;20471;-86
2023/01/13 11:45:30;;;;;;;17.10;3.00;;;11.70;99.90;;;;;;4857774;29;21050;-85
2023/01/13 11:48:02;;;;;;;12.20;4.30;;;11.60;99.90;;;;;;4859563;29;20440;-86
2023/01/13 11:50:39;;;;;;;20.63;4.53;;;11.60;99.90;;;;;;4857717;29;20477;-85
2023/01/13 11:53:47;;;;;;;28.20;4.67;;;11.70;99.90;;;;;;4861058;29;20468;-86
2023/01/13 11:56:26;;;;;;;11.10;3.40;;;11.80;99.90;;;;;;4874038;29;20531;-86
2023/01/13 11:59:29;;;;;;;12.40;3.23;;;12.20;99.90;;;;;;4873720;29;20434;-85
2023/01/13 12:02:19;;;;;;;20.33;2.60;;;12.40;99.90;;;;;;4877065;29;20479;-86
2023/01/13 12:05:03;;;;;;;17.37;2.73;;;12.40;99.90;;;;;;4861790;29;20451;-85
2023/01/13 12:08:03;;;;;;;19.03;2.87;;;12.20;99.90;;;;;;4875361;29;20463;-86
2023/01/13 12:11:12;;;;;;;;;;;;;;;;;;;;;
2023/01/13 12:14:34;;;;;;;10.30;2.97;;;12.00;99.90;;;;;;4871337;29;20477;-85
2023/01/13 12:17:02;;;;;;;11.43;2.30;;;12.00;99.90;;;;;;4853260;29;20449;-90
2023/01/13 12:19:31;;;;;;;8.90;2.27;;;11.80;1.00;;;;;;4862862;29;20478;-86
2023/01/13 12:22:15;;;;;;;18.23;2.87;;;11.70;1.00;;;;;;4859419;29;20506;-86
2023/01/13 12:24:55;;;;;;;7.23;2.83;;;11.50;1.00;;;;;;4882043;29;20448;-85
2023/01/13 12:28:05;;;;;;;13.87;2.80;;;11.30;1.00;;;;;;4864312;29;20444;-85
2023/01/13 12:31:19;;;;;;;9.87;2.40;;;11.30;1.00;;;;;;4858930;29;20492;-86
2023/01/13 12:34:07;;;;;;;5.17;2.27;;;11.50;1.00;;;;;;4878273;29;21038;-87
2023/01/13 12:37:08;;;;;;;9.97;2.80;;;11.50;1.00;;;;;;4870616;29;20462;-85
2023/01/13 12:50:52;;;;;;;14.43;3.10;;;10.90;99.90;;;;;;4788066;29;20468;-86
2023/01/13 12:53:41;;;;;;;8.83;3.03;;;11.00;99.90;;;;;;4754150;30;20570;-86
2023/01/13 12:56:21;;;;;;;7.17;2.70;;;11.00;99.90;;;;;;4766014;30;20547;-87
2023/01/13 12:59:18;;;;;;;11.30;3.70;;;11.00;99.90;;;;;;4777991;29;20448;-86
2023/01/13 13:02:18;;;;;;;7.93;2.90;;;11.10;99.90;;;;;;4818310;29;20976;-85
2023/01/13 13:05:03;;;;;;;11.37;2.57;;;11.10;99.90;;;;;;4858302;29;20480;-85
2023/01/13 13:07:29;;;;;;;11.10;2.97;;;10.90;99.90;;;;;;4875533;29;20532;-85
2023/01/13 13:10:01;;;;;;;10.33;2.30;;;10.80;99.90;;;;;;4872726;29;20490;-87
2023/01/13 13:15:35;;;;;;;12.03;3.10;;;10.90;99.90;;;;;;4874447;29;20472;-86
2023/01/13 13:18:07;;;;;;;8.53;2.73;;;11.10;99.90;;;;;;4864294;29;20438;-87
2023/01/13 13:21:13;;;;;;;7.73;2.10;;;11.50;99.90;;;;;;4863054;29;20479;-86
2023/01/13 13:26:49;;;;;;;9.80;2.33;;;11.50;99.90;;;;;;4880808;29;21009;-86
2023/01/13 13:29:51;;;;;;;;;;;;;;;;;;;;;
2023/01/13 13:32:42;;;;;;;6.27;2.30;;;11.10;99.90;;;;;;4876998;29;20882;-85
2023/01/13 13:36:08;;;;;;;9.20;2.53;;;10.90;1.00;;;;;;4873174;29;20535;-86
2023/01/13 13:48:29;;;;;;;12.90;3.33;;;10.60;1.00;;;;;;4881492;29;20447;-84
2023/01/13 13:51:05;;;;;;;10.30;3.00;;;10.50;1.00;;;;;;4879158;29;21055;-84
2023/01/13 13:53:37;;;;;;;13.97;3.43;;;10.40;99.90;;;;;;4880803;29;20452;-85
2023/01/13 13:56:13;;;;;;;8.90;2.70;;;10.40;99.90;;;;;;4862851;29;20468;-86
2023/01/13 13:58:39;;;;;;;9.57;3.73;;;10.40;99.90;;;;;;4881503;29;20443;-85
2023/01/13 14:01:05;;;;;;;16.50;3.50;;;10.40;99.90;;;;;;4866472;29;20866;-83
2023/01/13 14:03:33;;;;;;;16.80;3.73;;;10.50;99.90;;;;;;4884922;29;20436;-85
2023/01/13 14:06:01;;;;;;;16.67;4.30;;;10.50;99.90;;;;;;4877735;29;20192;-86
2023/01/13 14:12:13;;;;;;;12.27;3.13;;;10.50;99.90;;;;;;4925508;23;20490;-86
2023/01/13 14:15:00;;;;;;;16.33;4.13;;;10.60;1.00;;;;;;4891737;29;20487;-87
2023/01/13 14:20:38;;;;;;;20.10;3.37;;;10.60;99.90;;;;;;4877924;29;20482;-86
2023/01/13 14:23:04;;;;;;;11.93;3.53;;;10.60;1.00;;;;;;4880374;29;20451;-87
2023/01/13 14:25:44;;;;;;;15.97;3.83;;;10.60;78.40;;;;;;4868178;29;20452;-87
2023/01/13 14:28:20;;;;;;;12.67;2.80;;;10.50;99.90;;;;;;4875659;29;21163;-86
2023/01/13 14:30:46;;;;;;;13.17;3.40;;;10.40;99.90;;;;;;4863987;29;20995;-86
2023/01/13 14:33:16;;;;;;;14.97;3.30;;;10.40;99.90;;;;;;4862828;29;20504;-87
2023/01/13 14:36:12;;;;;;;18.67;3.77;;;10.30;99.90;;;;;;4874887;29;20463;-87
2023/01/13 14:38:38;;;;;;;19.83;7.73;;;10.30;1.00;;;;;;4857531;29;20445;-87
2023/01/13 14:41:24;;;;;;;13.13;3.00;;;10.20;1.00;;;;;;4877562;29;20583;-87
2023/01/13 14:43:55;;;;;;;16.03;3.00;;;10.10;99.90;;;;;;4869494;29;20519;-87
2023/01/13 14:46:24;;;;;;;11.80;3.07;;;10.00;1.00;;;;;;4859330;29;20468;-87
2023/01/13 14:49:02;;;;;;;17.33;3.10;;;9.90;1.00;;;;;;4881010;29;20523;-87
2023/01/13 14:51:30;;;;;;;11.27;3.53;;;9.90;99.90;;;;;;4889481;29;20447;-87
2023/01/13 14:54:04;;;;;;;19.57;3.70;;;9.80;1.00;;;;;;4885059;29;20453;-89
2023/01/13 14:56:49;;;;;;;13.60;3.57;;;9.70;41.00;;;;;;4877472;29;20858;-87
2023/01/13 14:59:56;;;;;;;11.43;3.73;;;9.70;99.90;;;;;;4868729;29;20463;-87
2023/01/13 15:02:27;;;;;;;15.83;2.83;;;9.70;99.90;;;;;;4871125;29;20452;-87
2023/01/13 15:04:53;;;;;;;15.33;4.17;;;9.60;99.90;;;;;;4883927;29;20856;-88
2023/01/13 15:07:33;;;;;;;13.50;4.70;;;9.60;1.00;;;;;;4888716;29;20440;-85
2023/01/13 15:10:01;;;;;;;14.20;3.33;;;9.60;1.00;;;;;;4894073;29;20251;-82
2023/01/13 15:12:39;;;;;;;25.27;3.20;;;9.60;57.20;;;;;;4876072;29;20451;-83
2023/01/13 15:15:32;;;;;;;8.17;3.50;;;9.50;99.90;;;;;;4870915;29;20811;-85
2023/01/13 15:22:29;;;;;;;9.93;4.00;;;9.50;99.90;;;;;;4773401;30;20499;-85
2023/01/13 15:25:33;;;;;;;12.40;2.83;;;9.50;99.90;;;;;;4774460;30;20557;-85
2023/01/13 15:31:45;;;;;;;;;;;;;;;;;;;;;
2023/01/13 15:34:19;;;;;;;16.33;4.63;;;9.30;1.00;;;;;;4697566;30;20500;-84
2023/01/13 15:36:51;;;;;;;11.70;3.07;;;9.30;1.00;;;;;;4703959;30;20461;-86
2023/01/13 15:48:46;;;;;;;11.53;3.10;;;9.00;1.00;;;;;;4875158;29;20486;-85
2023/01/13 15:51:12;;;;;;;13.03;3.23;;;9.00;4.40;;;;;;4875020;29;20456;-84
2023/01/13 15:53:41;;;;;;;13.63;2.70;;;8.90;99.90;;;;;;4862063;29;20611;-84
2023/01/13 15:56:24;;;;;;;14.03;3.00;;;8.90;99.90;;;;;;4874156;29;20448;-85
2023/01/13 15:59:32;;;;;;;11.80;2.70;;;8.80;99.90;;;;;;4884926;29;20455;-84
2023/01/13 16:02:29;;;;;;;59.60;29.83;;;8.80;99.90;;;;;;4859135;29;20617;-85
2023/01/13 16:09:15;;;;;;;;;;;;;;;;;;;;;
2023/01/13 16:15:17;;;;;;;12.63;4.00;;;8.70;99.90;;;;;;4871933;29;20475;-85
2023/01/13 16:17:45;;;;;;;14.97;3.47;;;8.70;1.00;;;;;;4856702;29;20445;-83
2023/01/13 16:20:15;;;;;;;20.93;3.90;;;8.70;1.00;;;;;;4881680;29;20487;-84
2023/01/13 16:22:41;;;;;;;19.43;7.40;;;8.70;1.00;;;;;;4877662;29;20447;-83
2023/01/13 16:56:54;;;;;;;16.75;4.15;;;8.80;99.90;;;;;;4849079;29;20192;-89
2023/01/13 17:03:07;;;;;;;18.65;4.03;;;8.90;99.90;;;;;;4817612;29;20511;-86
2023/01/13 17:05:52;;;;;;;14.55;2.83;;;8.90;31.10;;;;;;4820169;29;20190;-86
2023/01/13 17:13:52;;;;;;;20.33;3.90;;;9.00;1.00;;;;;;5621506;23;20518;-87
2023/01/13 17:56:33;;;;;;;15.60;4.73;;;9.20;99.90;;;;;;4812861;29;20884;-85
2023/01/13 17:59:57;;;;;;;21.30;4.60;;;9.30;1.00;;;;;;4836174;29;20991;-86
2023/01/13 18:02:50;;;;;;;14.40;3.33;;;9.30;1.00;;;;;;4839663;29;20822;-86
2023/01/13 18:06:39;;;;;;;;;;;;;;;;;;;;;
2023/01/13 18:55:55;;;;;;;21.97;2.80;;;9.40;1.00;;;;;;3261219;27;21126;-88
2023/01/13 18:58:36;;;;;;;16.93;3.40;;;9.40;27.00;;;;;;4874104;29;20462;-88
2023/01/13 19:01:28;;;;;;;17.17;3.40;;;9.40;92.10;;;;;;4880561;29;20490;-87
2023/01/13 19:04:34;;;;;;;16.77;3.00;;;9.40;99.90;;;;;;4879422;29;20446;-87
2023/01/13 19:07:20;;;;;;;;;;;;;;;;;;;;;
2023/01/13 19:09:56;;;;;;;18.13;4.10;;;9.40;99.90;;;;;;4897494;29;20486;-87
2023/01/13 19:12:41;;;;;;;12.17;3.83;;;9.30;99.90;;;;;;4880441;29;20858;-87
2023/01/13 19:15:18;;;;;;;15.40;3.57;;;9.30;99.90;;;;;;4856916;29;20453;-87
2023/01/13 19:17:50;;;;;;;18.97;4.10;;;9.30;99.90;;;;;;4839026;29;20465;-87
2023/01/13 19:20:31;;;;;;;16.87;4.23;;;9.30;99.90;;;;;;4899809;29;20478;-87
2023/01/13 19:23:17;;;;;;;19.50;2.93;;;9.30;99.90;;;;;;4893806;29;20455;-87